Time;durP1;ratioP1;P1;durP2;ratioP2;P2;SDS_P1;SDS_P2;PMS_P1;PMS_P2;Temp;Humidity;BMP_temperature;BMP_pressure;BME280_temperature;BME280_humidity;BME280_pressure;Samples;Min_cycle;Max_cycle;Signal;HPM_P1;HPM_P2
2022/03/30 00:00:11;;;;;;;17.17;10.70;;;;;;;;;;5033850;28;20077;-71
2022/03/30 00:02:37;;;;;;;18.10;10.25;;;;;;;;;;5035928;28;20464;-70
2022/03/30 00:05:03;;;;;;;17.25;10.82;;;;;;;;;;5033101;28;20115;-70
2022/03/30 00:07:31;;;;;;;19.08;10.40;;;;;;;;;;5025270;28;20025;-70
2022/03/30 00:10:01;;;;;;;16.50;10.48;;;;;;;;;;5034213;28;20083;-70
2022/03/30 00:12:27;;;;;;;19.33;10.77;;;;;;;;;;5025628;28;20053;-70
2022/03/30 00:14:54;;;;;;;20.40;11.00;;;;;;;;;;5035760;28;20018;-70
2022/03/30 00:17:21;;;;;;;19.95;11.25;;;;;;;;;;5034049;28;20104;-71
2022/03/30 00:19:47;;;;;;;16.95;11.07;;;;;;;;;;5033105;28;20033;-70
2022/03/30 00:22:13;;;;;;;17.70;10.73;;;;;;;;;;5023423;28;20048;-71
2022/03/30 00:24:43;;;;;;;16.67;11.07;;;;;;;;;;5032639;28;20033;-70
2022/03/30 00:27:10;;;;;;;19.48;11.25;;;;;;;;;;5034044;28;20100;-70
2022/03/30 00:29:36;;;;;;;18.40;10.75;;;;;;;;;;5026926;28;20493;-70
2022/03/30 00:32:02;;;;;;;19.15;11.02;;;;;;;;;;5027206;28;20038;-71
2022/03/30 00:34:28;;;;;;;18.38;11.30;;;;;;;;;;5035998;28;20083;-71
2022/03/30 00:36:55;;;;;;;18.70;10.73;;;;;;;;;;5033371;28;20033;-71
2022/03/30 00:39:21;;;;;;;20.35;10.55;;;;;;;;;;5032008;28;20418;-71
2022/03/30 00:41:49;;;;;;;17.23;10.38;;;;;;;;;;5028710;28;20466;-71
2022/03/30 00:44:15;;;;;;;18.63;11.38;;;;;;;;;;5033564;28;20026;-70
2022/03/30 00:46:43;;;;;;;18.85;10.50;;;;;;;;;;5033478;28;20029;-70
2022/03/30 00:49:09;;;;;;;15.27;10.40;;;;;;;;;;5026568;28;20084;-72
2022/03/30 00:51:36;;;;;;;18.08;10.98;;;;;;;;;;5022704;28;20030;-70
2022/03/30 00:54:02;;;;;;;25.77;15.88;;;;;;;;;;5031468;28;20402;-74
2022/03/30 00:56:30;;;;;;;17.08;12.20;;;;;;;;;;5037852;28;20025;-71
2022/03/30 00:58:56;;;;;;;23.27;11.18;;;;;;;;;;5038304;28;20022;-70
2022/03/30 01:01:23;;;;;;;15.85;10.52;;;;;;;;;;5037047;28;20061;-71
2022/03/30 01:03:50;;;;;;;15.50;10.13;;;;;;;;;;5036702;28;20475;-71
2022/03/30 01:06:16;;;;;;;16.17;10.63;;;;;;;;;;5038071;28;20085;-70
2022/03/30 01:08:42;;;;;;;16.63;10.40;;;;;;;;;;5038421;28;20060;-71
2022/03/30 01:11:12;;;;;;;16.20;10.10;;;;;;;;;;5037235;28;20396;-70
2022/03/30 01:13:41;;;;;;;18.45;10.65;;;;;;;;;;5035291;28;20086;-71
2022/03/30 01:16:07;;;;;;;24.38;11.32;;;;;;;;;;5027290;28;20034;-73
2022/03/30 01:18:40;;;;;;;16.95;10.63;;;;;;;;;;5032435;28;20026;-71
2022/03/30 01:21:11;;;;;;;17.85;10.77;;;;;;;;;;5035072;28;20030;-71
2022/03/30 01:23:37;;;;;;;19.33;10.23;;;;;;;;;;5027135;28;20395;-71
2022/03/30 01:26:07;;;;;;;14.85;9.75;;;;;;;;;;5036981;28;20065;-70
2022/03/30 01:28:33;;;;;;;19.13;10.20;;;;;;;;;;5036975;28;20021;-71
2022/03/30 01:33:45;;;;;;;16.73;9.73;;;;;;;;;;5037393;28;20040;-70
2022/03/30 01:36:11;;;;;;;20.08;10.25;;;;;;;;;;5037556;28;20029;-71
2022/03/30 01:38:37;;;;;;;18.23;9.57;;;;;;;;;;5036694;28;20033;-72
2022/03/30 01:41:03;;;;;;;19.00;10.18;;;;;;;;;;5037654;28;20032;-70
2022/03/30 01:43:30;;;;;;;18.50;9.02;;;;;;;;;;5037510;28;20464;-70
2022/03/30 01:45:57;;;;;;;17.10;9.90;;;;;;;;;;5031755;28;20064;-70
2022/03/30 01:48:23;;;;;;;15.27;8.90;;;;;;;;;;5025284;28;20033;-70
2022/03/30 01:50:49;;;;;;;18.52;9.32;;;;;;;;;;5026696;28;20033;-71
2022/03/30 01:53:15;;;;;;;15.55;9.18;;;;;;;;;;5031507;28;20064;-70
2022/03/30 01:55:41;;;;;;;22.95;9.60;;;;;;;;;;5035555;28;20360;-72
2022/03/30 01:58:07;;;;;;;20.30;9.00;;;;;;;;;;5028308;28;20506;-71
2022/03/30 02:00:34;;;;;;;16.55;9.73;;;;;;;;;;5037447;28;20415;-70
2022/03/30 02:03:00;;;;;;;16.85;9.60;;;;;;;;;;5036384;28;20174;-71
2022/03/30 02:05:26;;;;;;;14.38;9.18;;;;;;;;;;5034874;28;20032;-70
2022/03/30 02:07:52;;;;;;;17.05;8.65;;;;;;;;;;5036055;28;20029;-70
2022/03/30 02:10:18;;;;;;;16.50;8.57;;;;;;;;;;5028514;28;20084;-71
2022/03/30 02:12:44;;;;;;;18.33;9.00;;;;;;;;;;5036822;28;20061;-71
2022/03/30 02:15:10;;;;;;;17.23;8.50;;;;;;;;;;5033567;28;20025;-70
2022/03/30 02:17:38;;;;;;;15.95;8.05;;;;;;;;;;5037282;28;20463;-70
2022/03/30 02:20:05;;;;;;;21.33;8.18;;;;;;;;;;5035036;28;20041;-70
2022/03/30 02:22:31;;;;;;;16.52;7.72;;;;;;;;;;5035419;28;20044;-71
2022/03/30 02:24:57;;;;;;;16.02;7.63;;;;;;;;;;5038911;28;20018;-71
2022/03/30 02:27:23;;;;;;;18.60;7.90;;;;;;;;;;5035380;28;20040;-71
2022/03/30 02:29:51;;;;;;;17.73;7.38;;;;;;;;;;5035436;28;20093;-72
2022/03/30 02:32:17;;;;;;;16.92;7.40;;;;;;;;;;5036216;28;20033;-73
2022/03/30 02:34:43;;;;;;;21.58;8.20;;;;;;;;;;5035249;28;20018;-70
2022/03/30 02:37:10;;;;;;;13.25;6.78;;;;;;;;;;5030929;28;20490;-70
2022/03/30 02:39:37;;;;;;;21.98;7.20;;;;;;;;;;5034279;28;20108;-71
2022/03/30 02:42:03;;;;;;;16.75;7.45;;;;;;;;;;5035018;28;20030;-70
2022/03/30 02:44:29;;;;;;;15.65;7.07;;;;;;;;;;5035828;28;20060;-71
2022/03/30 02:46:56;;;;;;;17.30;7.68;;;;;;;;;;5035463;28;20021;-70
2022/03/30 02:49:22;;;;;;;20.65;7.55;;;;;;;;;;5037618;28;20087;-70
2022/03/30 02:51:48;;;;;;;22.15;7.90;;;;;;;;;;5035423;28;20029;-70
2022/03/30 02:54:14;;;;;;;20.95;7.22;;;;;;;;;;5035627;28;20022;-71
2022/03/30 02:56:40;;;;;;;18.73;7.28;;;;;;;;;;5030028;28;20479;-71
2022/03/30 02:59:06;;;;;;;20.50;7.30;;;;;;;;;;5036655;28;20060;-72
2022/03/30 03:01:32;;;;;;;21.30;8.32;;;;;;;;;;5034759;28;20040;-72
2022/03/30 03:03:58;;;;;;;21.45;7.53;;;;;;;;;;5033803;28;20475;-71
2022/03/30 03:06:25;;;;;;;17.35;7.28;;;;;;;;;;5035386;28;20021;-69
2022/03/30 03:08:51;;;;;;;15.63;6.93;;;;;;;;;;5026767;28;20534;-70
2022/03/30 03:11:17;;;;;;;17.40;7.30;;;;;;;;;;5026400;28;20068;-69
2022/03/30 03:13:43;;;;;;;19.05;7.57;;;;;;;;;;5026304;28;20104;-69
2022/03/30 03:16:11;;;;;;;20.13;7.82;;;;;;;;;;5033895;28;20032;-71
2022/03/30 03:18:37;;;;;;;27.10;7.65;;;;;;;;;;5029888;28;20018;-70
2022/03/30 03:21:03;;;;;;;19.17;7.32;;;;;;;;;;5034681;28;20033;-69
2022/03/30 03:23:29;;;;;;;22.98;7.63;;;;;;;;;;5034034;28;20148;-70
2022/03/30 03:25:55;;;;;;;23.73;7.50;;;;;;;;;;5030376;28;20033;-69
2022/03/30 03:28:22;;;;;;;26.67;7.18;;;;;;;;;;5032701;28;20033;-70
2022/03/30 03:30:48;;;;;;;20.92;7.55;;;;;;;;;;5039826;28;20025;-71
2022/03/30 03:33:15;;;;;;;18.63;6.85;;;;;;;;;;5036862;28;20383;-70
2022/03/30 03:35:41;;;;;;;21.80;7.03;;;;;;;;;;5033317;28;20091;-69
2022/03/30 03:38:08;;;;;;;20.35;7.15;;;;;;;;;;5028326;28;20037;-70
2022/03/30 03:40:35;;;;;;;24.88;7.13;;;;;;;;;;5033663;28;20057;-69
2022/03/30 03:43:01;;;;;;;35.42;7.65;;;;;;;;;;5030602;28;20106;-69
2022/03/30 03:45:32;;;;;;;22.20;7.53;;;;;;;;;;5030101;28;20521;-70
2022/03/30 03:47:59;;;;;;;23.63;7.65;;;;;;;;;;5033853;28;20515;-69
2022/03/30 03:50:26;;;;;;;20.48;6.82;;;;;;;;;;5034065;28;20029;-69
2022/03/30 03:52:53;;;;;;;17.90;9.40;;;;;;;;;;5033275;28;20021;-69
2022/03/30 03:55:19;;;;;;;21.42;7.80;;;;;;;;;;5034380;28;20371;-70
2022/03/30 03:57:45;;;;;;;21.40;7.55;;;;;;;;;;5034828;28;20099;-70
2022/03/30 04:00:14;;;;;;;19.33;7.15;;;;;;;;;;5033421;28;20025;-70
2022/03/30 04:02:41;;;;;;;22.92;7.28;;;;;;;;;;5032522;28;20049;-68
2022/03/30 04:05:09;;;;;;;26.25;7.60;;;;;;;;;;5028654;28;20026;-73
2022/03/30 04:07:35;;;;;;;29.80;7.47;;;;;;;;;;5033276;28;20467;-69
2022/03/30 04:10:01;;;;;;;23.83;7.00;;;;;;;;;;5027288;28;20041;-68
2022/03/30 04:12:27;;;;;;;27.02;7.70;;;;;;;;;;5030718;28;20029;-69
2022/03/30 04:14:53;;;;;;;23.77;8.07;;;;;;;;;;5032798;28;20021;-68
2022/03/30 04:17:22;;;;;;;28.88;7.00;;;;;;;;;;5041615;28;20387;-68
2022/03/30 04:19:50;;;;;;;22.40;7.57;;;;;;;;;;5030977;28;20108;-72
2022/03/30 04:22:17;;;;;;;23.83;8.15;;;;;;;;;;5026749;28;20041;-73
2022/03/30 04:24:48;;;;;;;17.38;7.22;;;;;;;;;;5028403;28;20117;-71
2022/03/30 04:27:15;;;;;;;26.70;7.68;;;;;;;;;;5029724;28;20029;-74
2022/03/30 04:29:49;;;;;;;24.00;7.70;;;;;;;;;;5012684;28;20061;-72
2022/03/30 04:32:15;;;;;;;27.27;7.82;;;;;;;;;;5034056;28;20041;-70
2022/03/30 04:34:41;;;;;;;25.15;7.22;;;;;;;;;;5023560;28;20108;-75
2022/03/30 04:37:07;;;;;;;18.90;7.40;;;;;;;;;;5028487;28;20530;-73
2022/03/30 04:39:34;;;;;;;23.83;7.57;;;;;;;;;;5029654;28;20057;-72
2022/03/30 04:42:00;;;;;;;21.83;8.15;;;;;;;;;;5029604;28;20049;-71
2022/03/30 04:44:26;;;;;;;24.40;7.57;;;;;;;;;;5030799;28;20033;-73
2022/03/30 04:46:52;;;;;;;20.25;7.45;;;;;;;;;;5031754;28;20037;-72
2022/03/30 04:49:18;;;;;;;24.15;7.53;;;;;;;;;;5032425;28;20104;-72
2022/03/30 04:51:45;;;;;;;21.27;7.15;;;;;;;;;;5032152;28;20029;-74
2022/03/30 04:54:11;;;;;;;19.10;7.07;;;;;;;;;;5035309;28;20088;-73
2022/03/30 04:56:54;;;;;;;21.15;8.05;;;;;;;;;;5031330;28;20030;-71
2022/03/30 04:59:23;;;;;;;27.08;8.23;;;;;;;;;;5032613;28;20017;-69
2022/03/30 05:01:49;;;;;;;26.50;7.00;;;;;;;;;;5032560;28;20022;-68
2022/03/30 05:04:15;;;;;;;23.00;7.97;;;;;;;;;;5030546;28;20029;-69
2022/03/30 05:06:41;;;;;;;24.30;7.03;;;;;;;;;;5031884;28;20038;-70
2022/03/30 05:09:11;;;;;;;28.33;7.25;;;;;;;;;;5035494;28;20037;-74
2022/03/30 05:11:39;;;;;;;47.58;9.10;;;;;;;;;;5039175;28;20112;-70
2022/03/30 05:14:05;;;;;;;24.75;8.13;;;;;;;;;;5041301;28;20033;-71
2022/03/30 05:16:31;;;;;;;25.88;7.82;;;;;;;;;;5039049;28;20022;-71
2022/03/30 05:18:57;;;;;;;21.83;7.50;;;;;;;;;;5038649;28;20041;-70
2022/03/30 05:21:23;;;;;;;27.30;7.57;;;;;;;;;;5035590;28;20022;-70
2022/03/30 05:23:49;;;;;;;23.33;7.38;;;;;;;;;;5038086;28;20048;-71
2022/03/30 05:26:15;;;;;;;26.33;7.10;;;;;;;;;;5035727;28;20025;-72
2022/03/30 05:28:42;;;;;;;22.42;7.10;;;;;;;;;;5026814;28;20506;-72
2022/03/30 05:31:08;;;;;;;24.63;8.20;;;;;;;;;;5032330;28;20494;-72
2022/03/30 05:33:37;;;;;;;20.60;8.43;;;;;;;;;;5029997;28;20063;-71
2022/03/30 05:36:04;;;;;;;26.48;8.15;;;;;;;;;;5026731;28;20117;-69
2022/03/30 05:38:30;;;;;;;24.67;9.00;;;;;;;;;;5028634;28;20035;-68
2022/03/30 05:41:02;;;;;;;33.17;10.70;;;;;;;;;;5012588;28;20050;-70
2022/03/30 05:43:28;;;;;;;33.28;9.88;;;;;;;;;;5013566;28;20092;-71
2022/03/30 05:45:54;;;;;;;31.08;8.30;;;;;;;;;;5015047;28;20567;-82
2022/03/30 05:48:24;;;;;;;33.15;9.52;;;;;;;;;;5009854;28;20407;-84
2022/03/30 05:50:52;;;;;;;25.55;8.35;;;;;;;;;;5008293;28;20030;-70
2022/03/30 05:53:18;;;;;;;25.35;7.25;;;;;;;;;;5012735;28;20391;-76
2022/03/30 05:55:45;;;;;;;22.40;7.70;;;;;;;;;;5013951;28;20029;-77
2022/03/30 06:01:10;;;;;;;19.55;7.25;;;;;;;;;;4915393;29;20115;-74
2022/03/30 06:03:38;;;;;;;21.75;6.97;;;;;;;;;;4915133;29;20042;-79
2022/03/30 06:06:09;;;;;;;26.00;7.65;;;;;;;;;;4917251;29;20172;-78
2022/03/30 06:08:35;;;;;;;22.85;7.35;;;;;;;;;;4911952;29;20557;-85
2022/03/30 06:11:01;;;;;;;35.38;8.13;;;;;;;;;;4916891;29;20145;-71
2022/03/30 06:13:27;;;;;;;30.35;8.63;;;;;;;;;;4915493;29;20036;-68
2022/03/30 06:15:54;;;;;;;30.08;8.52;;;;;;;;;;4915577;29;20047;-74
2022/03/30 06:18:20;;;;;;;23.38;7.63;;;;;;;;;;4917263;29;20538;-75
2022/03/30 06:20:46;;;;;;;30.52;7.85;;;;;;;;;;4920386;29;20126;-76
2022/03/30 06:23:12;;;;;;;23.30;7.55;;;;;;;;;;4916050;29;20072;-76
2022/03/30 06:25:38;;;;;;;21.67;7.25;;;;;;;;;;4915188;29;20167;-73
2022/03/30 06:28:05;;;;;;;29.33;8.65;;;;;;;;;;4921043;29;20086;-74
2022/03/30 06:30:31;;;;;;;23.10;7.53;;;;;;;;;;4919128;29;20063;-75
2022/03/30 06:33:00;;;;;;;21.67;7.43;;;;;;;;;;4915833;29;20032;-71
2022/03/30 06:35:26;;;;;;;22.70;6.70;;;;;;;;;;4915637;29;20028;-69
2022/03/30 06:37:52;;;;;;;20.70;7.45;;;;;;;;;;4966100;28;20088;-73
2022/03/30 06:40:19;;;;;;;31.05;8.27;;;;;;;;;;5026700;28;20041;-71
2022/03/30 06:42:45;;;;;;;27.08;7.55;;;;;;;;;;5031552;28;20117;-72
2022/03/30 06:45:11;;;;;;;20.10;6.95;;;;;;;;;;5031161;28;20033;-73
2022/03/30 06:47:38;;;;;;;23.23;6.88;;;;;;;;;;5033160;28;20026;-74
2022/03/30 06:50:19;;;;;;;18.85;6.90;;;;;;;;;;5031323;28;20045;-73
2022/03/30 06:52:48;;;;;;;20.67;6.70;;;;;;;;;;5030405;28;20026;-77
2022/03/30 06:55:15;;;;;;;22.63;6.78;;;;;;;;;;5043799;28;20076;-70
2022/03/30 06:57:43;;;;;;;20.52;7.32;;;;;;;;;;5032558;28;20391;-69
2022/03/30 07:00:13;;;;;;;24.80;7.07;;;;;;;;;;5033033;28;20108;-70
2022/03/30 07:02:40;;;;;;;20.15;7.05;;;;;;;;;;5031384;28;20034;-71
2022/03/30 07:05:06;;;;;;;21.58;7.03;;;;;;;;;;5031552;28;20025;-69
2022/03/30 07:10:19;;;;;;;218.75;169.23;;;;;;;;;;5033487;28;20039;-71
2022/03/30 07:12:49;;;;;;;32.80;12.77;;;;;;;;;;5032334;28;20545;-70
2022/03/30 07:15:16;;;;;;;23.08;6.85;;;;;;;;;;5030778;28;20176;-69
2022/03/30 07:17:46;;;;;;;19.02;6.45;;;;;;;;;;5031963;28;20076;-75
2022/03/30 07:20:14;;;;;;;26.60;7.22;;;;;;;;;;5030351;28;20037;-85
2022/03/30 07:22:40;;;;;;;20.30;6.50;;;;;;;;;;5026205;28;20163;-88
2022/03/30 07:25:41;;;;;;;19.38;6.35;;;;;;;;;;5030871;28;20029;-76
2022/03/30 07:28:16;;;;;;;22.35;6.93;;;;;;;;;;5009585;28;20046;-77
2022/03/30 07:30:54;;;;;;;28.75;7.15;;;;;;;;;;4990848;28;20030;-75
2022/03/30 07:33:26;;;;;;;31.98;7.90;;;;;;;;;;4971592;28;20046;-71
2022/03/30 07:38:47;;;;;;;21.60;6.80;;;;;;;;;;4981887;28;21759;-74
2022/03/30 07:41:13;;;;;;;24.60;7.35;;;;;;;;;;4975451;28;20042;-88
2022/03/30 07:43:39;;;;;;;29.17;7.55;;;;;;;;;;4990177;28;20093;-87
2022/03/30 07:46:15;;;;;;;34.40;8.32;;;;;;;;;;4972645;28;20081;-71
2022/03/30 07:48:43;;;;;;;20.42;6.88;;;;;;;;;;4985552;28;20058;-70
2022/03/30 07:51:09;;;;;;;22.77;6.85;;;;;;;;;;4989022;28;20041;-71
2022/03/30 07:53:35;;;;;;;20.02;7.18;;;;;;;;;;4990867;28;20050;-91
2022/03/30 07:56:04;;;;;;;21.35;7.05;;;;;;;;;;4989842;28;20595;-86
2022/03/30 07:58:31;;;;;;;31.02;8.15;;;;;;;;;;5007782;28;20041;-85
2022/03/30 08:00:57;;;;;;;20.23;6.75;;;;;;;;;;5009851;28;20040;-78
2022/03/30 08:03:23;;;;;;;23.10;7.40;;;;;;;;;;5009594;28;20507;-77
2022/03/30 08:05:49;;;;;;;18.90;6.50;;;;;;;;;;5028527;28;20376;-74
2022/03/30 08:08:15;;;;;;;22.05;6.45;;;;;;;;;;5024398;28;20025;-75
2022/03/30 08:10:41;;;;;;;22.95;7.10;;;;;;;;;;5029524;28;20029;-79
2022/03/30 08:13:07;;;;;;;23.15;7.05;;;;;;;;;;5029542;28;20522;-75
2022/03/30 08:15:36;;;;;;;25.98;7.10;;;;;;;;;;5030439;28;20045;-78
2022/03/30 08:18:05;;;;;;;26.30;7.93;;;;;;;;;;5032972;28;20048;-79
2022/03/30 08:23:16;;;;;;;27.23;7.25;;;;;;;;;;5021626;28;20100;-77
2022/03/30 08:25:42;;;;;;;16.67;6.88;;;;;;;;;;5032365;28;20033;-77
2022/03/30 08:28:10;;;;;;;26.25;7.93;;;;;;;;;;5032586;28;20106;-77
2022/03/30 08:30:36;;;;;;;21.15;7.60;;;;;;;;;;5031807;28;20060;-77
2022/03/30 08:33:03;;;;;;;29.05;8.32;;;;;;;;;;5027295;28;20041;-76
2022/03/30 08:35:30;;;;;;;42.55;12.25;;;;;;;;;;5029096;28;20057;-75
2022/03/30 08:37:56;;;;;;;25.90;9.13;;;;;;;;;;5032702;28;20470;-76
2022/03/30 08:40:25;;;;;;;47.67;17.75;;;;;;;;;;5032376;28;20044;-77
2022/03/30 08:42:53;;;;;;;39.92;12.65;;;;;;;;;;5028671;28;20044;-77
2022/03/30 08:45:19;;;;;;;27.08;8.75;;;;;;;;;;5018418;28;20021;-77
2022/03/30 08:47:49;;;;;;;24.27;8.85;;;;;;;;;;5026947;28;20033;-74
2022/03/30 08:50:15;;;;;;;50.80;16.65;;;;;;;;;;5029901;28;20408;-82
2022/03/30 08:52:41;;;;;;;31.20;12.75;;;;;;;;;;5031975;28;20032;-77
2022/03/30 08:55:07;;;;;;;22.67;8.25;;;;;;;;;;5032442;28;20036;-79
2022/03/30 08:57:33;;;;;;;31.02;11.85;;;;;;;;;;5030486;28;20041;-79
2022/03/30 09:00:08;;;;;;;26.88;8.50;;;;;;;;;;5028717;28;20052;-80
2022/03/30 09:02:38;;;;;;;29.88;8.85;;;;;;;;;;5029758;28;20029;-78
2022/03/30 09:05:15;;;;;;;30.88;11.68;;;;;;;;;;5024185;28;20045;-77
2022/03/30 09:07:48;;;;;;;93.85;36.47;;;;;;;;;;5031388;28;20393;-76
2022/03/30 09:10:22;;;;;;;22.53;8.20;;;;;;;;;;5028289;28;20028;-79
2022/03/30 09:12:50;;;;;;;20.02;7.95;;;;;;;;;;5023982;28;20021;-74
2022/03/30 09:15:16;;;;;;;19.35;6.93;;;;;;;;;;5032659;28;20014;-74
2022/03/30 09:17:43;;;;;;;21.13;8.30;;;;;;;;;;5033743;28;20048;-76
2022/03/30 09:20:20;;;;;;;25.70;10.57;;;;;;;;;;5035924;28;20037;-76
2022/03/30 09:22:50;;;;;;;36.78;12.77;;;;;;;;;;5025829;28;20026;-77
2022/03/30 09:25:17;;;;;;;33.40;11.07;;;;;;;;;;5035547;28;20033;-76
2022/03/30 09:27:43;;;;;;;23.90;8.05;;;;;;;;;;5031545;28;20506;-76
2022/03/30 09:30:11;;;;;;;22.13;7.88;;;;;;;;;;5036001;28;20025;-79
2022/03/30 09:32:39;;;;;;;19.48;8.13;;;;;;;;;;5035951;28;20013;-76
2022/03/30 09:35:05;;;;;;;33.35;12.77;;;;;;;;;;5034431;28;20030;-81
2022/03/30 09:37:32;;;;;;;52.00;19.75;;;;;;;;;;5021882;28;20475;-73
2022/03/30 09:39:58;;;;;;;23.00;7.55;;;;;;;;;;5028124;28;20045;-76
2022/03/30 09:42:30;;;;;;;24.65;7.38;;;;;;;;;;5034936;28;20486;-81
2022/03/30 09:44:56;;;;;;;19.77;7.35;;;;;;;;;;5034438;28;20029;-76
2022/03/30 09:47:23;;;;;;;27.83;7.53;;;;;;;;;;5047774;28;20025;-80
2022/03/30 09:49:53;;;;;;;24.45;7.38;;;;;;;;;;5035293;28;20054;-78
2022/03/30 09:52:21;;;;;;;23.02;7.95;;;;;;;;;;5033408;28;20022;-75
2022/03/30 09:54:49;;;;;;;22.65;7.28;;;;;;;;;;5034505;28;20021;-74
2022/03/30 09:57:22;;;;;;;22.58;7.18;;;;;;;;;;5032140;28;20075;-75
2022/03/30 09:59:48;;;;;;;;;;;;;;;;;;5032086;28;20104;-77
2022/03/30 10:02:14;;;;;;;21.67;6.40;;;;;;;;;;5036331;28;20354;-79
2022/03/30 10:04:40;;;;;;;24.30;6.68;;;;;;;;;;5023547;28;20049;-79
2022/03/30 10:07:06;;;;;;;23.33;7.45;;;;;;;;;;5034072;28;20033;-76
2022/03/30 10:09:35;;;;;;;25.13;7.25;;;;;;;;;;5035076;28;20451;-74
2022/03/30 10:12:02;;;;;;;23.75;7.10;;;;;;;;;;5034942;28;20040;-79
2022/03/30 10:14:28;;;;;;;33.30;8.77;;;;;;;;;;5028532;28;20022;-75
2022/03/30 10:16:54;;;;;;;23.08;7.60;;;;;;;;;;5021570;28;20109;-81
2022/03/30 10:19:20;;;;;;;20.25;7.55;;;;;;;;;;5034961;28;20025;-74
2022/03/30 10:21:46;;;;;;;29.17;7.85;;;;;;;;;;5034472;28;20030;-77
2022/03/30 10:24:31;;;;;;;25.67;8.05;;;;;;;;;;5033695;28;20182;-75
2022/03/30 10:27:09;;;;;;;23.17;8.05;;;;;;;;;;5033563;28;20056;-75
2022/03/30 10:29:36;;;;;;;26.27;7.82;;;;;;;;;;5034211;28;20151;-74
2022/03/30 10:32:12;;;;;;;21.85;8.20;;;;;;;;;;5033636;28;20033;-75
2022/03/30 10:35:04;;;;;;;27.30;11.18;;;;;;;;;;5034141;28;20021;-75
2022/03/30 10:37:33;;;;;;;17.67;6.97;;;;;;;;;;5020646;28;20113;-79
2022/03/30 10:40:05;;;;;;;23.70;7.82;;;;;;;;;;5035342;28;20042;-75
2022/03/30 10:42:46;;;;;;;23.05;7.60;;;;;;;;;;5034438;28;20451;-75
2022/03/30 10:45:23;;;;;;;23.38;7.18;;;;;;;;;;5030542;28;20038;-76
2022/03/30 10:48:25;;;;;;;33.35;10.60;;;;;;;;;;5027633;28;20072;-72
2022/03/30 10:50:54;;;;;;;26.52;8.73;;;;;;;;;;4954341;29;20416;-77
2022/03/30 10:53:35;;;;;;;31.55;8.15;;;;;;;;;;4955163;29;20035;-75
2022/03/30 10:56:10;;;;;;;18.55;7.20;;;;;;;;;;4954105;29;20050;-76
2022/03/30 10:58:36;;;;;;;23.90;7.70;;;;;;;;;;4952646;29;20040;-72
2022/03/30 11:01:21;;;;;;;21.25;7.10;;;;;;;;;;4944664;29;20064;-77
2022/03/30 11:03:57;;;;;;;25.23;7.30;;;;;;;;;;4934818;29;20126;-74
2022/03/30 11:06:24;;;;;;;20.80;7.13;;;;;;;;;;4934146;29;20460;-79
2022/03/30 11:08:51;;;;;;;21.00;7.75;;;;;;;;;;4951798;29;20050;-80
2022/03/30 11:11:21;;;;;;;19.02;7.07;;;;;;;;;;4952641;29;20046;-77
2022/03/30 11:13:47;;;;;;;21.30;6.97;;;;;;;;;;4950325;29;20027;-74
2022/03/30 11:16:13;;;;;;;22.60;7.68;;;;;;;;;;4949999;29;20039;-72
2022/03/30 11:19:10;;;;;;;21.30;7.63;;;;;;;;;;4949656;29;20039;-71
2022/03/30 11:21:38;;;;;;;24.35;7.80;;;;;;;;;;4873663;29;20345;-70
2022/03/30 11:24:09;;;;;;;16.90;7.53;;;;;;;;;;4867004;29;20412;-70
2022/03/30 11:26:50;;;;;;;23.75;7.78;;;;;;;;;;4916237;29;20730;-76
2022/03/30 11:29:34;;;;;;;21.25;7.60;;;;;;;;;;4932932;29;20181;-90
2022/03/30 11:32:00;;;;;;;23.17;7.68;;;;;;;;;;4917466;29;20078;-85
2022/03/30 11:34:32;;;;;;;21.20;7.13;;;;;;;;;;4935344;29;20035;-82
2022/03/30 11:37:02;;;;;;;19.08;6.75;;;;;;;;;;4928800;29;20122;-78
2022/03/30 11:39:33;;;;;;;22.35;7.68;;;;;;;;;;4932921;29;20040;-83
2022/03/30 11:42:00;;;;;;;23.00;7.15;;;;;;;;;;4932306;29;20028;-75
2022/03/30 11:47:13;;;;;;;23.55;8.05;;;;;;;;;;4934258;29;20572;-77
2022/03/30 11:49:49;;;;;;;19.20;7.68;;;;;;;;;;4931205;29;20031;-74
2022/03/30 11:52:16;;;;;;;21.00;7.82;;;;;;;;;;4915950;29;20037;-73
2022/03/30 11:54:47;;;;;;;20.13;8.32;;;;;;;;;;4930796;29;20564;-77
2022/03/30 11:57:15;;;;;;;27.30;7.88;;;;;;;;;;4933185;28;20046;-82
2022/03/30 11:59:41;;;;;;;24.77;8.18;;;;;;;;;;5029256;28;20107;-89
2022/03/30 12:02:08;;;;;;;18.17;7.97;;;;;;;;;;5031190;28;20079;-92
2022/03/30 12:04:36;;;;;;;23.15;8.82;;;;;;;;;;5030021;28;20037;-84
2022/03/30 12:07:03;;;;;;;32.95;17.02;;;;;;;;;;5045610;28;20040;-75
2022/03/30 12:09:29;;;;;;;24.38;9.30;;;;;;;;;;5030185;28;20029;-73
2022/03/30 12:11:56;;;;;;;28.50;8.52;;;;;;;;;;5025394;28;20029;-76
2022/03/30 12:14:28;;;;;;;21.10;8.60;;;;;;;;;;5031516;28;20043;-76
2022/03/30 12:16:59;;;;;;;21.77;9.48;;;;;;;;;;5033065;28;20028;-77
2022/03/30 12:19:25;;;;;;;21.10;8.10;;;;;;;;;;5029097;28;20021;-77
2022/03/30 12:21:51;;;;;;;25.30;8.57;;;;;;;;;;5032351;28;20095;-82
2022/03/30 12:24:22;;;;;;;26.63;8.35;;;;;;;;;;5031310;28;20084;-74
2022/03/30 12:26:52;;;;;;;32.38;9.38;;;;;;;;;;5031325;28;20017;-86
2022/03/30 12:29:18;;;;;;;33.10;10.75;;;;;;;;;;5030284;28;20036;-83
2022/03/30 12:31:50;;;;;;;38.80;10.40;;;;;;;;;;5031192;28;20033;-74
2022/03/30 12:34:17;;;;;;;30.48;9.63;;;;;;;;;;5031982;28;20487;-75
2022/03/30 12:36:47;;;;;;;31.92;9.93;;;;;;;;;;5031657;28;20495;-81
2022/03/30 12:39:24;;;;;;;36.22;12.13;;;;;;;;;;5025829;28;20070;-71
2022/03/30 12:41:56;;;;;;;27.83;10.48;;;;;;;;;;5012024;28;20109;-71
2022/03/30 12:44:22;;;;;;;20.67;8.50;;;;;;;;;;5011802;28;21392;-79
2022/03/30 12:46:52;;;;;;;27.63;8.20;;;;;;;;;;5012304;28;20034;-80
2022/03/30 12:49:18;;;;;;;18.38;7.93;;;;;;;;;;5010381;28;20077;-76
2022/03/30 12:51:44;;;;;;;27.42;8.52;;;;;;;;;;5008620;28;20026;-76
2022/03/30 12:54:22;;;;;;;18.85;8.07;;;;;;;;;;5010221;28;20030;-76
2022/03/30 12:56:49;;;;;;;27.20;8.18;;;;;;;;;;4991303;28;20052;-71
2022/03/30 12:59:19;;;;;;;34.75;7.53;;;;;;;;;;5007046;28;20522;-75
2022/03/30 13:01:49;;;;;;;32.05;7.88;;;;;;;;;;4987124;28;20034;-79
2022/03/30 13:04:19;;;;;;;24.85;6.90;;;;;;;;;;5009662;28;20045;-74
2022/03/30 13:07:25;;;;;;;30.38;7.22;;;;;;;;;;5007272;28;20080;-70
2022/03/30 13:10:01;;;;;;;24.00;7.07;;;;;;;;;;4949516;28;20441;-75
2022/03/30 13:12:31;;;;;;;26.77;7.45;;;;;;;;;;4948749;29;20474;-73
2022/03/30 13:15:04;;;;;;;18.73;6.88;;;;;;;;;;4948298;28;20067;-82
2022/03/30 13:17:46;;;;;;;;;;;;;;;;;;;;;
2022/03/30 13:20:12;;;;;;;41.60;8.93;;;;;;;;;;4951012;29;20023;-76
2022/03/30 13:22:49;;;;;;;22.77;6.50;;;;;;;;;;4951445;29;20065;-77
2022/03/30 13:25:35;;;;;;;18.90;7.25;;;;;;;;;;4935201;29;20039;-80
2022/03/30 13:28:07;;;;;;;21.67;7.45;;;;;;;;;;4932659;28;20406;-72
2022/03/30 13:30:34;;;;;;;23.35;6.93;;;;;;;;;;4949645;28;20045;-72
2022/03/30 13:33:01;;;;;;;20.10;6.68;;;;;;;;;;4948949;28;20031;-74
2022/03/30 13:35:28;;;;;;;22.83;6.38;;;;;;;;;;4934845;29;20027;-73
2022/03/30 13:37:54;;;;;;;15.90;6.18;;;;;;;;;;4947994;28;20035;-75
2022/03/30 13:40:21;;;;;;;21.20;7.47;;;;;;;;;;4996963;28;20045;-87
2022/03/30 13:42:47;;;;;;;17.20;7.93;;;;;;;;;;5047628;28;20061;-78
2022/03/30 13:45:14;;;;;;;18.50;6.22;;;;;;;;;;5043343;28;20071;-73
2022/03/30 13:47:41;;;;;;;15.70;5.93;;;;;;;;;;5030273;28;20104;-69
2022/03/30 13:50:08;;;;;;;23.73;7.45;;;;;;;;;;5028612;28;20014;-77
2022/03/30 13:52:34;;;;;;;21.65;7.38;;;;;;;;;;5025870;28;20033;-77
2022/03/30 13:55:00;;;;;;;19.95;6.65;;;;;;;;;;5030162;28;20018;-75
2022/03/30 13:57:26;;;;;;;17.48;7.32;;;;;;;;;;5030697;28;20029;-77
2022/03/30 13:59:52;;;;;;;17.77;6.93;;;;;;;;;;5028926;28;20490;-75
2022/03/30 14:02:18;;;;;;;17.90;6.10;;;;;;;;;;5031952;28;20021;-77
2022/03/30 14:04:46;;;;;;;19.45;7.30;;;;;;;;;;5033257;28;20441;-78
2022/03/30 14:07:13;;;;;;;18.58;6.70;;;;;;;;;;5032910;28;20107;-79
2022/03/30 14:09:39;;;;;;;15.18;5.85;;;;;;;;;;5030581;28;20035;-78
2022/03/30 14:12:06;;;;;;;18.13;6.40;;;;;;;;;;5027337;28;20169;-80
2022/03/30 14:14:34;;;;;;;19.58;5.43;;;;;;;;;;5025893;28;20047;-74
2022/03/30 14:17:02;;;;;;;14.77;5.88;;;;;;;;;;5021853;28;20044;-80
2022/03/30 14:19:28;;;;;;;16.80;5.88;;;;;;;;;;5020645;28;20108;-71
2022/03/30 14:22:00;;;;;;;17.83;6.70;;;;;;;;;;5022569;28;20112;-71
2022/03/30 14:24:26;;;;;;;18.48;5.40;;;;;;;;;;5024660;28;20041;-73
2022/03/30 14:26:53;;;;;;;21.23;6.43;;;;;;;;;;5030383;28;20085;-72
2022/03/30 14:29:22;;;;;;;14.88;5.60;;;;;;;;;;5032013;28;20037;-73
2022/03/30 14:31:49;;;;;;;25.58;6.97;;;;;;;;;;5029250;28;20049;-73
2022/03/30 14:34:15;;;;;;;18.45;6.28;;;;;;;;;;5026847;28;20049;-68
2022/03/30 14:36:41;;;;;;;17.13;6.13;;;;;;;;;;5029513;28;20029;-65
2022/03/30 14:39:07;;;;;;;16.05;7.75;;;;;;;;;;5034177;28;20415;-67
2022/03/30 14:41:33;;;;;;;20.60;6.78;;;;;;;;;;5031024;28;20033;-65
2022/03/30 14:43:59;;;;;;;17.27;6.22;;;;;;;;;;5033096;28;20048;-66
2022/03/30 14:46:26;;;;;;;17.27;6.20;;;;;;;;;;5033993;28;20037;-64
2022/03/30 14:48:55;;;;;;;16.63;5.85;;;;;;;;;;5033742;28;20076;-69
2022/03/30 14:51:24;;;;;;;20.63;6.18;;;;;;;;;;5025706;28;20021;-73